Time;durP1;ratioP1;P1;durP2;ratioP2;P2;SDS_P1;SDS_P2;PMS_P1;PMS_P2;Temp;Humidity;BMP_temperature;BMP_pressure;BME280_temperature;BME280_humidity;BME280_pressure;Samples;Min_cycle;Max_cycle;Signal;HPM_P1;HPM_P2
2024/01/31 00:01:43;;;;;;;42.03;37.25;;;12.70;1.00;;;;;;5047062;28;20466;-66
2024/01/31 00:04:08;;;;;;;50.58;44.90;;;12.60;1.00;;;;;;5044618;28;20414;-65
2024/01/31 00:06:34;;;;;;;50.67;45.22;;;12.40;99.90;;;;;;5044410;28;20037;-65
2024/01/31 00:09:00;;;;;;;41.10;36.80;;;12.70;99.90;;;;;;5043830;28;20182;-65
2024/01/31 00:11:28;;;;;;;35.72;30.35;;;12.10;99.90;;;;;;5045498;28;20448;-65
2024/01/31 00:13:58;;;;;;;40.28;35.90;;;13.20;7.20;;;;;;5045353;28;20399;-66
2024/01/31 00:16:24;;;;;;;35.78;30.60;;;12.70;1.00;;;;;;5044391;28;20045;-65
2024/01/31 00:18:52;;;;;;;35.35;31.10;;;12.40;99.90;;;;;;5045325;28;20052;-65
2024/01/31 00:21:18;;;;;;;40.80;35.72;;;12.10;99.90;;;;;;5045773;28;20067;-65
2024/01/31 00:23:44;;;;;;;35.13;31.38;;;12.10;99.90;;;;;;5045474;28;20045;-65
2024/01/31 00:26:10;;;;;;;37.92;32.65;;;12.00;99.90;;;;;;5045637;28;20497;-65
2024/01/31 00:28:36;;;;;;;38.35;34.30;;;12.10;99.90;;;;;;5045612;28;20044;-65
2024/01/31 00:31:01;;;;;;;40.63;36.40;;;12.40;99.90;;;;;;5044275;28;20072;-65
2024/01/31 00:33:27;;;;;;;42.97;36.22;;;12.40;99.90;;;;;;5043124;28;20049;-65
2024/01/31 00:35:53;;;;;;;34.38;30.70;;;12.30;99.90;;;;;;5045535;28;20123;-65
2024/01/31 00:38:19;;;;;;;33.95;30.52;;;12.60;99.90;;;;;;5060289;28;20068;-65
2024/01/31 00:40:44;;;;;;;36.45;32.40;;;12.10;75.90;;;;;;5064776;28;20080;-65
2024/01/31 00:43:10;;;;;;;34.22;30.55;;;12.80;5.70;;;;;;5064653;28;20485;-64
2024/01/31 00:45:35;;;;;;;38.08;32.38;;;12.30;1.00;;;;;;5064563;28;20424;-65
2024/01/31 00:48:02;;;;;;;32.83;29.50;;;12.10;1.00;;;;;;5063736;28;20153;-66
2024/01/31 00:50:27;;;;;;;30.70;27.75;;;12.60;1.00;;;;;;5058409;28;20048;-65
2024/01/31 00:52:53;;;;;;;30.02;27.00;;;12.30;1.00;;;;;;5045372;28;20373;-65
2024/01/31 00:55:19;;;;;;;34.20;30.25;;;12.10;1.00;;;;;;5045792;28;20399;-65
2024/01/31 00:57:46;;;;;;;39.13;30.45;;;11.90;99.90;;;;;;5062838;28;20079;-65
2024/01/31 01:00:12;;;;;;;36.92;33.20;;;12.20;99.90;;;;;;5063108;28;20037;-65
2024/01/31 01:02:40;;;;;;;37.53;33.65;;;12.30;99.90;;;;;;5043399;28;20480;-65
2024/01/31 01:05:09;;;;;;;37.40;33.42;;;12.30;99.90;;;;;;5044727;28;20048;-65
2024/01/31 01:07:39;;;;;;;37.85;33.92;;;13.00;1.00;;;;;;5062897;28;20101;-65
2024/01/31 01:10:09;;;;;;;38.90;34.25;;;12.20;1.00;;;;;;5062766;28;20055;-65
2024/01/31 01:12:35;;;;;;;43.72;38.17;;;12.50;1.00;;;;;;5044823;28;20052;-65
2024/01/31 01:15:00;;;;;;;39.55;35.58;;;12.30;1.00;;;;;;5047660;28;20477;-64
2024/01/31 01:17:26;;;;;;;43.92;37.55;;;13.40;1.00;;;;;;5065882;28;20037;-66
2024/01/31 01:19:52;;;;;;;35.78;31.90;;;12.10;1.00;;;;;;5066922;28;20610;-65
2024/01/31 01:22:18;;;;;;;39.20;33.72;;;13.00;1.00;;;;;;5048520;28;20193;-65
2024/01/31 01:24:43;;;;;;;37.30;33.33;;;12.20;1.00;;;;;;5067256;28;20476;-65
2024/01/31 01:27:09;;;;;;;35.03;29.90;;;12.40;1.00;;;;;;5065304;28;20161;-65
2024/01/31 01:29:34;;;;;;;26.13;23.58;;;12.40;1.00;;;;;;5067654;28;20040;-66
2024/01/31 01:32:00;;;;;;;28.30;24.95;;;11.80;99.90;;;;;;5048623;28;20047;-65
2024/01/31 01:34:25;;;;;;;25.92;23.40;;;12.00;99.90;;;;;;5067226;28;20040;-65
2024/01/31 01:36:51;;;;;;;26.60;24.05;;;12.50;99.90;;;;;;5030131;28;1047781;-65
2024/01/31 01:39:17;;;;;;;27.50;24.90;;;12.30;99.90;;;;;;5068259;28;20063;-65
2024/01/31 01:41:48;;;;;;;27.08;24.30;;;12.50;99.90;;;;;;5067815;28;20059;-64
2024/01/31 01:44:14;;;;;;;25.30;22.65;;;12.20;99.90;;;;;;5050167;28;20072;-64
2024/01/31 01:46:40;;;;;;;31.02;27.83;;;12.20;99.90;;;;;;5083408;28;20509;-65
2024/01/31 01:49:06;;;;;;;30.27;27.35;;;12.40;99.90;;;;;;5046135;28;20047;-64
2024/01/31 01:51:32;;;;;;;31.90;26.05;;;12.30;99.90;;;;;;5065499;28;20044;-64
2024/01/31 01:53:58;;;;;;;29.65;26.60;;;12.60;99.90;;;;;;5066903;28;20040;-65
2024/01/31 01:56:24;;;;;;;30.48;27.42;;;12.10;99.90;;;;;;5066910;28;20049;-65
2024/01/31 01:58:52;;;;;;;31.38;27.08;;;12.40;99.90;;;;;;5066202;28;20040;-64
2024/01/31 02:01:20;;;;;;;33.97;29.85;;;11.90;99.90;;;;;;5063636;28;20578;-64
2024/01/31 02:06:23;;;;;;;31.20;26.25;;;11.70;99.90;;;;;;5098243;22;20139;-64
2024/01/31 02:08:49;;;;;;;29.15;26.23;;;11.70;99.90;;;;;;5046073;28;20509;-64
2024/01/31 02:11:14;;;;;;;40.13;35.83;;;11.60;99.90;;;;;;5029563;28;20044;-65
2024/01/31 02:13:40;;;;;;;43.08;38.35;;;11.90;99.90;;;;;;5028839;28;20884;-66
2024/01/31 02:16:06;;;;;;;41.33;36.75;;;12.00;99.90;;;;;;5033805;28;20103;-65
2024/01/31 02:18:31;;;;;;;45.50;40.88;;;12.00;99.90;;;;;;5046041;28;20048;-64
2024/01/31 02:20:57;;;;;;;48.70;43.35;;;11.90;99.90;;;;;;5027583;28;20072;-65
2024/01/31 02:23:23;;;;;;;53.33;47.90;;;11.90;99.90;;;;;;5028575;28;20072;-65
2024/01/31 02:25:48;;;;;;;49.72;42.40;;;11.70;99.90;;;;;;5028134;28;20051;-65
2024/01/31 02:28:14;;;;;;;50.47;44.97;;;11.60;99.90;;;;;;5024028;28;20044;-64
2024/01/31 02:30:41;;;;;;;49.42;43.97;;;12.00;1.00;;;;;;5026910;28;20122;-64
2024/01/31 02:33:06;;;;;;;57.50;51.63;;;12.00;1.00;;;;;;5026248;28;20032;-63
2024/01/31 02:35:33;;;;;;;52.38;46.78;;;11.90;1.00;;;;;;5042474;28;20047;-65
2024/01/31 02:38:01;;;;;;;53.03;47.42;;;12.20;1.00;;;;;;5025541;28;20566;-64
2024/01/31 02:40:29;;;;;;;50.90;45.15;;;12.20;1.00;;;;;;5046667;28;20401;-64
2024/01/31 02:42:55;;;;;;;51.35;45.92;;;12.20;1.00;;;;;;5024043;28;20040;-64
2024/01/31 02:45:21;;;;;;;44.65;38.65;;;12.10;1.00;;;;;;5045764;28;20047;-65
2024/01/31 02:47:46;;;;;;;44.42;39.15;;;11.80;1.00;;;;;;5028579;28;20493;-64
2024/01/31 02:50:12;;;;;;;49.55;39.97;;;11.30;1.00;;;;;;5047901;28;20059;-64
2024/01/31 02:52:38;;;;;;;42.17;36.53;;;11.30;1.00;;;;;;5047214;28;20044;-64
2024/01/31 02:55:04;;;;;;;47.42;38.58;;;11.10;1.00;;;;;;5028630;28;20037;-63
2024/01/31 02:57:29;;;;;;;45.90;37.35;;;10.50;1.00;;;;;;5028640;28;20048;-63
2024/01/31 02:59:55;;;;;;;51.60;44.22;;;10.50;99.90;;;;;;5028909;28;20091;-64
2024/01/31 03:02:21;;;;;;;56.45;45.85;;;10.50;1.00;;;;;;5028878;28;20048;-63
2024/01/31 03:04:47;;;;;;;65.63;58.83;;;11.20;33.20;;;;;;5028848;28;20053;-64
2024/01/31 03:07:12;;;;;;;61.28;52.25;;;11.60;99.90;;;;;;5028352;28;20477;-64
2024/01/31 03:09:38;;;;;;;60.85;54.35;;;11.20;99.90;;;;;;5028273;28;20120;-65
2024/01/31 03:12:05;;;;;;;57.42;51.20;;;11.40;99.90;;;;;;5046845;28;20045;-64
2024/01/31 03:14:34;;;;;;;58.50;52.15;;;11.80;99.90;;;;;;5029123;28;20131;-64
2024/01/31 03:17:00;;;;;;;66.80;52.25;;;12.10;99.90;;;;;;5029005;28;20048;-64
2024/01/31 03:19:28;;;;;;;56.78;50.65;;;12.20;99.90;;;;;;5029456;28;20051;-64
2024/01/31 03:21:54;;;;;;;62.85;56.25;;;12.00;99.90;;;;;;5028568;28;20056;-64
2024/01/31 03:24:21;;;;;;;54.13;48.38;;;11.90;99.90;;;;;;5028738;28;20414;-64
2024/01/31 03:26:46;;;;;;;55.47;49.67;;;12.30;99.90;;;;;;5028389;28;20424;-64
2024/01/31 03:29:12;;;;;;;57.90;52.28;;;12.30;1.00;;;;;;5046942;28;20090;-65
2024/01/31 03:31:38;;;;;;;65.38;58.42;;;12.30;1.00;;;;;;5028457;28;20127;-64
2024/01/31 03:34:06;;;;;;;55.67;49.42;;;12.60;1.00;;;;;;5028940;28;20605;-63
2024/01/31 03:36:33;;;;;;;59.28;52.97;;;11.80;1.00;;;;;;5027819;28;20048;-65
2024/01/31 03:38:59;;;;;;;60.45;54.00;;;11.80;1.00;;;;;;5028352;28;20049;-64
2024/01/31 03:41:25;;;;;;;64.45;57.47;;;11.90;1.00;;;;;;5027881;28;20059;-64
2024/01/31 03:43:51;;;;;;;56.95;50.85;;;11.80;1.00;;;;;;5028402;28;20536;-64
2024/01/31 03:46:17;;;;;;;53.08;43.08;;;12.80;1.00;;;;;;5025511;28;20094;-64
2024/01/31 03:48:43;;;;;;;50.63;40.72;;;12.40;1.00;;;;;;5042862;28;20429;-64
2024/01/31 03:51:27;;;;;;;44.80;38.40;;;11.70;1.00;;;;;;5045069;28;20040;-64
2024/01/31 03:53:52;;;;;;;45.75;37.35;;;12.00;99.90;;;;;;5027045;28;20087;-64
2024/01/31 03:56:18;;;;;;;43.00;36.03;;;12.30;99.90;;;;;;5026082;28;20077;-65
2024/01/31 03:58:44;;;;;;;48.30;35.85;;;12.90;99.90;;;;;;5022982;28;20509;-64
2024/01/31 04:01:15;;;;;;;46.40;37.22;;;12.10;99.90;;;;;;5026092;28;20037;-63
2024/01/31 04:03:43;;;;;;;44.25;30.95;;;11.90;99.90;;;;;;5026095;28;20421;-65
2024/01/31 04:06:09;;;;;;;39.60;30.48;;;12.80;99.90;;;;;;5025278;28;20059;-64
2024/01/31 04:08:35;;;;;;;48.33;37.67;;;12.40;99.90;;;;;;5025605;28;20053;-65
2024/01/31 04:11:01;;;;;;;43.22;35.72;;;12.20;1.00;;;;;;5044116;28;20077;-64
2024/01/31 04:13:27;;;;;;;43.47;37.97;;;11.40;1.00;;;;;;5043987;28;20086;-64
2024/01/31 04:15:53;;;;;;;44.38;39.80;;;11.50;1.00;;;;;;5025845;28;20087;-64
2024/01/31 04:18:18;;;;;;;36.55;32.88;;;11.80;1.00;;;;;;5026346;28;20044;-64
2024/01/31 04:20:44;;;;;;;38.92;31.90;;;11.90;1.00;;;;;;5044250;28;20163;-64
2024/01/31 04:23:09;;;;;;;37.28;31.92;;;12.10;1.00;;;;;;5027768;28;20037;-65
2024/01/31 04:25:35;;;;;;;37.13;32.47;;;11.90;1.00;;;;;;5023100;28;20410;-64
2024/01/31 04:28:01;;;;;;;40.33;36.00;;;11.40;1.00;;;;;;5027669;28;20044;-64
2024/01/31 04:30:27;;;;;;;41.08;35.30;;;11.50;1.00;;;;;;5027521;28;20580;-65
2024/01/31 04:32:52;;;;;;;38.72;30.92;;;11.30;1.00;;;;;;5027455;28;20071;-64
2024/01/31 04:35:18;;;;;;;38.38;34.38;;;11.30;1.00;;;;;;5028264;28;20465;-63
2024/01/31 04:37:44;;;;;;;43.60;36.65;;;10.20;1.00;;;;;;5011191;28;20052;-65
2024/01/31 04:40:10;;;;;;;55.90;47.88;;;11.40;1.00;;;;;;5026842;28;20056;-64
2024/01/31 04:42:36;;;;;;;43.42;38.92;;;11.30;1.00;;;;;;5043633;28;20124;-64
2024/01/31 04:45:02;;;;;;;49.90;44.60;;;10.80;1.00;;;;;;5040828;28;20112;-64
2024/01/31 04:47:28;;;;;;;41.10;35.67;;;10.80;1.00;;;;;;5018896;28;20521;-63
2024/01/31 04:49:58;;;;;;;44.08;39.17;;;11.00;1.00;;;;;;5035386;28;20041;-64
2024/01/31 04:52:24;;;;;;;46.80;41.80;;;11.00;1.00;;;;;;5037250;28;20492;-65
2024/01/31 04:54:50;;;;;;;43.70;37.55;;;10.60;1.00;;;;;;5042006;28;20383;-67
2024/01/31 04:57:16;;;;;;;47.53;42.42;;;10.50;1.00;;;;;;5024631;28;20075;-63
2024/01/31 04:59:42;;;;;;;55.40;43.67;;;10.70;1.00;;;;;;5022213;28;20064;-64
2024/01/31 05:02:08;;;;;;;53.70;46.35;;;11.40;1.00;;;;;;5016356;28;20067;-63
2024/01/31 05:04:34;;;;;;;42.40;37.60;;;10.40;1.00;;;;;;5018054;28;20559;-64
2024/01/31 05:07:00;;;;;;;43.30;39.13;;;10.60;1.00;;;;;;5015557;28;20042;-65
2024/01/31 05:09:25;;;;;;;49.58;44.50;;;10.40;1.00;;;;;;5020690;28;20041;-64
2024/01/31 05:11:51;;;;;;;42.13;37.83;;;10.50;1.00;;;;;;5017483;28;20045;-63
2024/01/31 05:14:17;;;;;;;38.97;34.70;;;10.70;1.00;;;;;;5019812;28;20575;-64
2024/01/31 05:16:43;;;;;;;41.88;37.58;;;10.40;1.00;;;;;;5015436;28;20046;-64
2024/01/31 05:19:11;;;;;;;42.67;34.25;;;11.30;1.00;;;;;;5018967;28;20052;-64
2024/01/31 05:21:48;;;;;;;54.60;37.97;;;11.30;1.00;;;;;;5014730;28;20185;-65
2024/01/31 05:24:14;;;;;;;43.72;35.30;;;10.90;1.00;;;;;;5007018;28;20049;-64
2024/01/31 05:26:42;;;;;;;41.97;35.63;;;10.80;1.00;;;;;;5020890;28;20203;-65
2024/01/31 05:29:07;;;;;;;52.83;42.85;;;10.80;1.00;;;;;;5044951;28;20044;-65
2024/01/31 05:31:33;;;;;;;47.05;42.08;;;10.50;1.00;;;;;;5045593;28;20094;-64
2024/01/31 05:33:58;;;;;;;50.05;44.35;;;11.00;1.00;;;;;;5026976;28;20053;-64
2024/01/31 05:36:24;;;;;;;42.95;38.60;;;10.60;1.00;;;;;;5027159;28;20152;-66
2024/01/31 05:38:50;;;;;;;42.97;39.10;;;11.00;14.40;;;;;;5045187;28;20049;-64
2024/01/31 05:41:15;;;;;;;33.85;30.60;;;10.50;46.50;;;;;;5026629;28;20041;-64
2024/01/31 05:43:41;;;;;;;39.58;35.33;;;10.40;75.30;;;;;;5042392;28;20036;-64
2024/01/31 05:46:07;;;;;;;37.80;34.28;;;10.40;86.90;;;;;;5030502;28;20035;-63
2024/01/31 05:48:32;;;;;;;35.92;32.10;;;10.40;96.90;;;;;;5031077;28;20040;-63
2024/01/31 05:50:58;;;;;;;46.47;40.67;;;10.30;71.30;;;;;;5012777;28;20041;-64
2024/01/31 05:53:23;;;;;;;40.35;36.33;;;11.60;25.40;;;;;;5037006;28;20094;-63
2024/01/31 05:55:49;;;;;;;40.97;37.30;;;10.60;8.40;;;;;;5038764;28;20065;-63
2024/01/31 05:58:14;;;;;;;43.92;39.42;;;10.00;1.00;;;;;;5023733;28;20041;-64
2024/01/31 06:00:40;;;;;;;59.03;39.60;;;9.80;1.00;;;;;;5044044;28;20045;-64
2024/01/31 06:03:06;;;;;;;58.53;52.40;;;9.70;51.30;;;;;;5026910;28;20044;-65
2024/01/31 06:05:32;;;;;;;47.08;41.95;;;9.70;99.90;;;;;;5024293;28;20116;-65
2024/01/31 06:07:58;;;;;;;49.15;43.05;;;10.60;99.90;;;;;;5023830;28;20049;-64
2024/01/31 06:10:24;;;;;;;45.88;41.25;;;9.90;99.90;;;;;;5024645;28;20150;-65
2024/01/31 06:12:50;;;;;;;42.92;37.85;;;9.90;99.90;;;;;;5023665;28;20446;-65
2024/01/31 06:15:16;;;;;;;42.38;37.97;;;10.20;99.90;;;;;;5022773;28;20060;-65
2024/01/31 06:17:43;;;;;;;42.60;38.40;;;10.70;99.90;;;;;;5022204;28;20451;-65
2024/01/31 06:20:09;;;;;;;46.38;39.15;;;10.90;99.90;;;;;;5017619;28;20076;-65
2024/01/31 06:22:35;;;;;;;43.17;38.80;;;10.40;99.90;;;;;;5021179;28;20034;-64
2024/01/31 06:25:01;;;;;;;42.17;37.80;;;10.50;99.90;;;;;;4996371;28;20044;-65
2024/01/31 06:27:26;;;;;;;41.83;37.42;;;10.70;99.90;;;;;;5017201;28;20164;-65
2024/01/31 06:29:52;;;;;;;38.03;34.03;;;11.50;99.90;;;;;;5017233;28;20067;-65
2024/01/31 06:32:21;;;;;;;39.67;35.63;;;10.90;99.90;;;;;;5026360;28;20696;-64
2024/01/31 06:34:47;;;;;;;43.25;38.50;;;10.70;91.10;;;;;;5023058;28;20045;-64
2024/01/31 06:37:13;;;;;;;37.85;34.15;;;11.90;81.80;;;;;;5017673;28;20049;-63
2024/01/31 06:39:39;;;;;;;44.42;37.35;;;11.40;90.70;;;;;;5024212;28;20585;-63
2024/01/31 06:42:06;;;;;;;41.25;37.15;;;11.40;90.50;;;;;;5038712;28;20050;-64
2024/01/31 06:44:32;;;;;;;38.42;34.72;;;11.50;65.70;;;;;;5025129;28;20828;-65
2024/01/31 06:46:58;;;;;;;40.97;36.67;;;11.30;47.60;;;;;;5042523;28;20041;-63
2024/01/31 06:49:24;;;;;;;40.55;36.35;;;11.80;23.70;;;;;;5019388;28;20084;-64
2024/01/31 06:51:50;;;;;;;40.67;36.28;;;11.50;3.60;;;;;;5023673;28;20100;-65
2024/01/31 06:54:17;;;;;;;41.15;36.90;;;11.80;1.00;;;;;;5020375;28;20468;-64
2024/01/31 06:56:42;;;;;;;37.97;32.10;;;11.50;1.00;;;;;;5021579;28;20091;-64
2024/01/31 06:59:08;;;;;;;39.30;35.40;;;11.80;1.00;;;;;;5018740;28;20045;-64
2024/01/31 07:01:34;;;;;;;41.15;35.13;;;11.60;1.00;;;;;;5021018;28;20048;-64
2024/01/31 07:04:00;;;;;;;42.42;38.20;;;11.30;1.00;;;;;;5020742;28;20489;-63
2024/01/31 07:06:25;;;;;;;41.63;37.67;;;11.90;1.00;;;;;;5019821;28;20053;-64
2024/01/31 07:08:51;;;;;;;46.72;41.85;;;11.90;1.00;;;;;;5018562;28;20118;-64
2024/01/31 07:11:17;;;;;;;43.17;36.22;;;12.00;1.00;;;;;;5017655;28;20041;-64
2024/01/31 07:13:43;;;;;;;46.25;41.65;;;11.40;1.00;;;;;;5020612;28;20065;-65
2024/01/31 07:16:09;;;;;;;45.30;40.80;;;12.00;1.00;;;;;;5020530;28;20049;-64
2024/01/31 07:18:44;;;;;;;44.47;39.97;;;11.10;1.00;;;;;;5005253;28;20998;-64
2024/01/31 07:21:11;;;;;;;44.85;40.38;;;12.00;1.00;;;;;;5012048;28;20037;-65
2024/01/31 07:23:37;;;;;;;42.40;37.97;;;11.70;1.00;;;;;;5014863;28;20041;-64
2024/01/31 07:26:03;;;;;;;43.65;39.25;;;11.30;1.00;;;;;;5016876;28;20522;-64
2024/01/31 07:28:33;;;;;;;52.00;39.75;;;11.70;1.00;;;;;;5020767;28;20045;-64
2024/01/31 07:31:01;;;;;;;46.50;38.85;;;11.90;1.00;;;;;;5017621;28;20428;-64
2024/01/31 07:33:27;;;;;;;40.28;35.85;;;11.70;1.00;;;;;;5021137;28;20120;-65
2024/01/31 07:35:52;;;;;;;37.28;33.35;;;11.70;1.00;;;;;;5021332;28;20152;-65
2024/01/31 07:38:18;;;;;;;37.53;33.42;;;11.20;1.00;;;;;;5019530;28;20056;-64
2024/01/31 07:40:43;;;;;;;37.25;33.80;;;11.50;1.00;;;;;;5010181;28;20077;-64
2024/01/31 07:43:09;;;;;;;33.15;29.60;;;11.80;1.00;;;;;;5022107;28;20111;-64
2024/01/31 07:45:35;;;;;;;41.08;36.47;;;11.50;1.00;;;;;;5019031;28;20029;-64
2024/01/31 07:48:00;;;;;;;37.55;33.55;;;12.00;1.00;;;;;;5018720;28;20048;-65
2024/01/31 07:50:26;;;;;;;34.45;31.00;;;11.70;1.00;;;;;;5021768;28;21656;-63
2024/01/31 07:52:51;;;;;;;34.92;31.38;;;11.70;1.00;;;;;;5019862;28;20060;-65
2024/01/31 07:55:17;;;;;;;36.33;32.22;;;11.80;99.90;;;;;;5019153;28;20571;-64
2024/01/31 07:57:43;;;;;;;35.30;32.10;;;11.40;99.90;;;;;;5018221;28;20071;-65
2024/01/31 08:00:09;;;;;;;44.00;39.20;;;11.30;1.00;;;;;;5016254;28;20077;-62
2024/01/31 08:02:34;;;;;;;49.05;43.95;;;11.70;1.00;;;;;;5015518;28;20483;-71
2024/01/31 08:05:00;;;;;;;37.42;33.60;;;11.70;1.00;;;;;;5016331;28;20133;-65
2024/01/31 08:07:26;;;;;;;36.80;33.28;;;11.40;1.00;;;;;;5020627;28;20107;-65
2024/01/31 08:09:52;;;;;;;39.15;34.45;;;11.60;1.00;;;;;;5015696;28;20045;-64
2024/01/31 08:12:17;;;;;;;34.13;30.90;;;11.80;1.00;;;;;;5019624;28;20044;-65
2024/01/31 08:14:43;;;;;;;38.40;34.15;;;11.60;99.90;;;;;;5016464;28;20091;-63
2024/01/31 08:17:10;;;;;;;46.35;41.60;;;11.90;99.90;;;;;;5014923;28;20473;-64
2024/01/31 08:19:35;;;;;;;39.33;35.15;;;11.60;99.90;;;;;;5015360;28;20061;-65
2024/01/31 08:22:01;;;;;;;38.85;35.20;;;11.70;1.00;;;;;;5019445;28;20062;-64
2024/01/31 08:24:27;;;;;;;41.78;37.30;;;11.30;1.00;;;;;;5016498;28;20052;-64
2024/01/31 08:26:52;;;;;;;36.80;33.00;;;12.20;1.00;;;;;;5017987;28;20037;-65
2024/01/31 08:29:18;;;;;;;36.08;32.60;;;12.10;1.00;;;;;;5030807;28;20107;-66
2024/01/31 08:31:43;;;;;;;36.50;32.90;;;12.00;1.00;;;;;;5017832;28;20037;-65
2024/01/31 08:34:12;;;;;;;40.75;36.90;;;12.10;99.90;;;;;;5016433;28;20041;-63
2024/01/31 08:36:39;;;;;;;40.42;36.58;;;11.70;99.90;;;;;;5015345;28;20045;-63
2024/01/31 08:39:04;;;;;;;36.55;32.88;;;12.00;99.90;;;;;;5014987;28;20081;-64
2024/01/31 08:41:31;;;;;;;37.65;33.78;;;11.60;99.90;;;;;;5013559;28;20120;-64
2024/01/31 08:43:57;;;;;;;34.42;31.23;;;11.90;99.90;;;;;;5018018;28;20069;-65
2024/01/31 08:46:25;;;;;;;38.47;34.60;;;12.10;99.90;;;;;;5015989;28;20049;-65
2024/01/31 08:48:50;;;;;;;36.75;33.08;;;12.10;99.90;;;;;;5013815;28;20124;-65
2024/01/31 08:51:16;;;;;;;37.67;34.05;;;12.10;99.90;;;;;;5019496;28;20040;-64
2024/01/31 08:53:42;;;;;;;35.03;31.88;;;12.10;99.90;;;;;;5014969;28;20054;-63
2024/01/31 08:56:09;;;;;;;46.53;41.95;;;12.30;99.90;;;;;;5015099;28;20041;-63
2024/01/31 08:58:35;;;;;;;46.47;42.10;;;12.30;99.90;;;;;;5013845;28;20514;-65
2024/01/31 09:01:00;;;;;;;41.25;37.10;;;12.20;99.90;;;;;;5015375;28;20145;-65
2024/01/31 09:03:26;;;;;;;39.97;35.97;;;11.90;99.90;;;;;;5014074;28;20625;-65
2024/01/31 09:05:53;;;;;;;48.22;43.53;;;12.40;99.90;;;;;;5010179;28;20058;-63
2024/01/31 09:08:20;;;;;;;35.53;32.05;;;12.50;99.90;;;;;;5013128;28;20681;-65
2024/01/31 09:10:45;;;;;;;45.85;41.63;;;12.30;99.90;;;;;;5012017;28;20137;-64
2024/01/31 09:13:11;;;;;;;36.55;32.97;;;12.60;99.90;;;;;;5014966;28;20351;-67
2024/01/31 09:15:36;;;;;;;42.50;38.50;;;12.60;99.90;;;;;;5018807;28;20042;-67
2024/01/31 09:18:03;;;;;;;40.42;36.65;;;12.00;99.90;;;;;;5017624;28;20073;-64
2024/01/31 09:20:29;;;;;;;35.67;32.25;;;12.10;99.90;;;;;;4999684;28;20388;-67
2024/01/31 09:22:54;;;;;;;42.42;38.25;;;12.10;99.90;;;;;;4998978;28;20072;-64
2024/01/31 09:25:20;;;;;;;43.38;39.15;;;12.30;99.90;;;;;;5014084;28;20435;-63
2024/01/31 09:27:46;;;;;;;40.53;36.75;;;12.70;99.90;;;;;;5014270;28;20045;-64
2024/01/31 09:30:12;;;;;;;45.97;41.42;;;12.20;99.90;;;;;;5016472;28;20064;-64
2024/01/31 09:32:37;;;;;;;40.97;37.17;;;12.40;99.90;;;;;;5017156;28;20034;-64
2024/01/31 09:35:03;;;;;;;33.97;30.80;;;12.10;99.90;;;;;;5013034;28;20640;-64
2024/01/31 09:37:32;;;;;;;32.67;29.58;;;12.10;99.90;;;;;;5015144;28;20075;-65
2024/01/31 09:39:57;;;;;;;39.22;35.45;;;12.40;99.90;;;;;;5017621;28;20045;-65
2024/01/31 09:42:23;;;;;;;41.85;37.85;;;12.40;99.90;;;;;;5020939;28;20063;-66
2024/01/31 09:44:51;;;;;;;33.30;30.17;;;12.50;99.90;;;;;;5021712;28;20033;-64
2024/01/31 09:47:17;;;;;;;40.00;36.30;;;12.20;99.90;;;;;;5039480;28;20727;-66
2024/01/31 09:49:43;;;;;;;34.17;31.00;;;12.80;99.90;;;;;;5000156;28;20264;-67
2024/01/31 09:52:11;;;;;;;34.00;30.60;;;12.50;99.90;;;;;;5018411;28;20135;-64
2024/01/31 09:54:39;;;;;;;39.80;35.95;;;12.80;99.90;;;;;;5008068;28;20056;-64
2024/01/31 09:57:05;;;;;;;42.50;38.30;;;12.60;99.90;;;;;;5021752;28;20117;-64
2024/01/31 09:59:31;;;;;;;39.75;35.53;;;12.50;99.90;;;;;;5022040;28;20052;-64
2024/01/31 10:01:57;;;;;;;44.60;40.45;;;12.50;99.90;;;;;;5024708;28;20692;-65
2024/01/31 10:04:23;;;;;;;42.45;38.63;;;12.50;99.90;;;;;;5021532;28;20095;-65
2024/01/31 10:06:48;;;;;;;40.13;36.33;;;12.40;99.90;;;;;;5020592;28;20041;-64
2024/01/31 10:09:14;;;;;;;38.22;34.80;;;12.50;99.90;;;;;;5022016;28;20099;-63
2024/01/31 10:11:46;;;;;;;35.80;32.53;;;12.60;99.90;;;;;;5022311;28;20152;-64
2024/01/31 10:14:12;;;;;;;37.47;33.97;;;13.00;99.90;;;;;;5025729;28;20071;-64
2024/01/31 10:16:38;;;;;;;30.90;27.92;;;12.60;99.90;;;;;;5023488;28;20490;-63
2024/01/31 10:19:04;;;;;;;29.45;26.75;;;12.60;99.90;;;;;;5022847;28;20418;-65
2024/01/31 10:21:32;;;;;;;37.00;33.63;;;12.90;99.90;;;;;;5020062;28;20072;-65
2024/01/31 10:24:04;;;;;;;28.95;26.25;;;12.80;99.90;;;;;;5020204;28;20032;-64
2024/01/31 10:26:32;;;;;;;28.38;25.92;;;12.60;99.90;;;;;;5040479;28;20055;-64
2024/01/31 10:28:58;;;;;;;30.08;27.38;;;13.20;99.90;;;;;;5038192;28;20080;-66
2024/01/31 10:31:24;;;;;;;36.30;32.90;;;12.70;99.90;;;;;;5036185;28;20422;-65
2024/01/31 10:33:50;;;;;;;42.63;38.58;;;13.20;99.90;;;;;;5018635;28;20046;-63
2024/01/31 10:36:18;;;;;;;35.10;31.75;;;13.00;99.90;;;;;;5021952;28;20041;-64
2024/01/31 10:38:45;;;;;;;42.05;37.95;;;12.60;99.90;;;;;;5024808;28;20500;-65
2024/01/31 10:41:13;;;;;;;34.30;30.92;;;12.60;99.90;;;;;;5040463;28;20324;-66
2024/01/31 10:43:41;;;;;;;45.22;40.45;;;13.00;99.90;;;;;;5023364;28;20418;-65
2024/01/31 10:46:07;;;;;;;45.85;41.35;;;12.90;99.90;;;;;;5022690;28;20426;-67
2024/01/31 10:48:32;;;;;;;45.83;41.08;;;12.60;99.90;;;;;;5019881;28;20065;-64
2024/01/31 10:51:00;;;;;;;43.42;39.13;;;13.10;99.90;;;;;;5021533;28;20041;-64
2024/01/31 10:53:28;;;;;;;41.53;37.50;;;12.80;99.90;;;;;;5020798;28;20121;-64
2024/01/31 10:55:56;;;;;;;31.08;28.10;;;12.80;99.90;;;;;;5020667;28;20093;-64
2024/01/31 10:58:22;;;;;;;41.67;37.65;;;13.00;99.90;;;;;;5040020;28;20206;-63
2024/01/31 11:00:48;;;;;;;43.10;38.97;;;13.70;99.90;;;;;;5020983;28;20049;-65
2024/01/31 11:03:17;;;;;;;34.53;31.15;;;12.90;99.90;;;;;;5017697;28;20589;-67
2024/01/31 11:05:43;;;;;;;39.20;35.45;;;12.90;99.90;;;;;;5017844;28;20077;-65
2024/01/31 11:08:23;;;;;;;41.72;37.47;;;13.10;99.90;;;;;;5022454;28;20052;-64
2024/01/31 11:10:49;;;;;;;35.60;32.17;;;13.10;99.90;;;;;;5040949;28;20709;-67
2024/01/31 11:13:15;;;;;;;31.58;28.50;;;13.10;99.90;;;;;;5022408;28;20036;-64
2024/01/31 11:15:41;;;;;;;32.17;29.08;;;13.00;99.90;;;;;;5022632;28;20406;-65
2024/01/31 11:18:10;;;;;;;29.80;27.10;;;12.50;99.90;;;;;;5035383;28;20090;-64
2024/01/31 11:20:39;;;;;;;41.22;37.13;;;13.20;99.90;;;;;;5042270;28;20056;-64
2024/01/31 11:23:05;;;;;;;41.17;37.20;;;12.70;99.90;;;;;;5034348;28;20037;-65
2024/01/31 11:25:37;;;;;;;41.00;37.00;;;13.30;99.90;;;;;;5038724;28;20044;-65
2024/01/31 11:28:08;;;;;;;42.28;38.15;;;12.90;99.90;;;;;;5036176;28;20037;-65
2024/01/31 11:30:34;;;;;;;34.30;31.05;;;13.40;99.90;;;;;;5039246;28;20079;-64
2024/01/31 11:33:03;;;;;;;38.42;34.72;;;14.20;99.90;;;;;;5019104;28;20041;-65
2024/01/31 11:35:29;;;;;;;41.50;37.40;;;13.10;99.90;;;;;;5035113;28;20115;-65
2024/01/31 11:38:07;;;;;;;36.20;32.55;;;13.00;99.90;;;;;;5033909;28;20387;-66
2024/01/31 11:40:32;;;;;;;40.20;35.90;;;12.80;99.90;;;;;;5022492;28;20056;-63
2024/01/31 11:42:58;;;;;;;36.28;32.67;;;13.30;99.90;;;;;;5020942;28;20036;-65
2024/01/31 11:45:27;;;;;;;37.40;33.78;;;13.10;99.90;;;;;;5022897;28;20033;-68
2024/01/31 11:47:58;;;;;;;44.13;39.63;;;13.30;99.90;;;;;;5019393;28;20131;-65
2024/01/31 11:50:25;;;;;;;41.50;37.30;;;13.20;99.90;;;;;;5017778;28;20033;-63
2024/01/31 11:52:51;;;;;;;33.58;30.38;;;13.40;99.90;;;;;;5022970;28;20507;-64
2024/01/31 11:55:25;;;;;;;36.90;33.10;;;13.00;1.00;;;;;;5020971;28;20049;-64
2024/01/31 11:57:52;;;;;;;30.77;27.98;;;13.80;99.90;;;;;;5021559;28;20094;-68
2024/01/31 12:00:18;;;;;;;39.80;35.60;;;13.90;1.00;;;;;;5021696;28;20039;-63
2024/01/31 12:02:44;;;;;;;43.90;39.45;;;13.30;1.00;;;;;;5016860;28;20060;-64
2024/01/31 12:05:11;;;;;;;43.22;38.90;;;12.90;1.00;;;;;;5017099;28;20052;-64
2024/01/31 12:07:38;;;;;;;40.05;35.83;;;13.10;1.00;;;;;;5035476;28;20045;-65
2024/01/31 12:10:05;;;;;;;38.85;34.75;;;13.80;99.90;;;;;;5015644;28;20046;-65
2024/01/31 12:12:33;;;;;;;38.83;34.85;;;13.40;99.90;;;;;;5034728;28;20469;-64
2024/01/31 12:14:58;;;;;;;30.17;27.27;;;13.00;99.90;;;;;;5019081;28;20048;-66
2024/01/31 12:17:26;;;;;;;40.10;36.08;;;12.90;99.90;;;;;;5007977;28;20487;-67
2024/01/31 12:20:05;;;;;;;41.22;37.13;;;13.00;99.90;;;;;;5033797;28;20599;-66
2024/01/31 12:22:32;;;;;;;37.50;33.60;;;13.50;99.90;;;;;;5000266;28;20045;-65
2024/01/31 12:24:58;;;;;;;42.80;38.40;;;13.30;99.90;;;;;;5031714;28;20076;-63
2024/01/31 12:27:24;;;;;;;42.10;37.80;;;13.00;99.90;;;;;;5016264;28;20033;-67
2024/01/31 12:29:51;;;;;;;40.90;36.75;;;13.70;99.90;;;;;;5016547;28;20517;-67